Hang Nadim, Indonesia

4:42 AM WIB on September 01, 2015 (GMT +0700)
Batam Hang Nadim | | Change Station
CLOSE
Current Station
Airport
Location: Batam Hang Nadim,
Elevation: 125 ft
Nearby Weather Stations

Elev 125 ft 1.12 °N, 104.12 °E | Updated 12 minutes ago

Scattered Clouds
Scattered Clouds
79 °F
Feels Like 79 °F
N
0
Wind Variable Wind from North

Today
High -- | Low -- °F
--% Chance of Precip.
Yesterday
High -- | Low -- °F
Precip. -- in
5:59 AM 6:07 PM
Waning Gibbous, 93% visible
Pressure 29.86 in
Visibility 5.0 miles
Clouds Scattered Clouds 1400 ft
Dew Point 75 °F
Humidity 89%
Rainfall 0.00 in
Snow Depth Not available.
UV 0 out of 12
Pollen Not available.
Air Quality Not available.
Flu Activity Not available.
METAR WIDD 312130Z 00000KT 8000 SCT014 26/24 Q1011
Pressure 29.86 in
Visibility 5.0 miles
Clouds Scattered Clouds 1400 ft
Dew Point 75 °F
Humidity 89%
Rainfall 0.00 in
Snow Depth Not available.
UV 0 out of 12
Pollen Not available.
Air Quality Not available.
Flu Activity Not available.
METAR WIDD 312130Z 00000KT 8000 SCT014 26/24 Q1011

10-Day Weather Forecast

×

Almanac

Astronomy

Sep. 01, 2015 Rise Set
Actual Time
Civil Twilight
Nautical Twilight
Astronomical Twilight
Moon
Length of Visible Light
Length of Day
Tomorrow will be .
, % of the Moon is Illuminated

Today's Extremes

Country Highs Country Lows

Community

WunderPhotos

Upload Photos

1,851,377 photos uploaded!

WunderBlogs® & News

Nearby

Air Quality

  Air Quality AQ Index Pollutant
Not available.

Snow Depth

Station Depth Elevation

Earthquake Activity

City Distance Mag. Time & Date
Minimum magnitude displayed is 2.5.

Coastal Water Temperatures

Place Temperature

Stations

Nearby Weather Stations

Station Location Temp. Windchill Dew Point Humidity Wind Precip. Elev Updated Type